createdAt,value
2022-12-20T00:01:36.583Z,57.24
2022-12-20T00:04:08.084Z,57.22
2022-12-20T00:06:36.242Z,57.52
2022-12-20T00:09:06.566Z,57.46
2022-12-20T00:11:34.153Z,57.33
2022-12-20T00:14:01.513Z,57.30
2022-12-20T00:16:29.840Z,57.17
2022-12-20T00:18:59.249Z,57.24
2022-12-20T00:21:27.585Z,57.05
2022-12-20T00:23:55.588Z,56.98
2022-12-20T00:26:26.350Z,57.19
2022-12-20T00:28:53.945Z,57.05
2022-12-20T00:31:22.887Z,57.14
2022-12-20T00:33:52.097Z,56.78
2022-12-20T00:36:19.875Z,57.17
2022-12-20T00:38:49.380Z,56.92
2022-12-20T00:41:21.372Z,57.22
2022-12-20T00:43:49.584Z,56.99
2022-12-20T00:46:18.186Z,57.02
2022-12-20T00:48:45.641Z,56.98
2022-12-20T00:51:16.780Z,57.12
2022-12-20T00:53:44.621Z,57.05
2022-12-20T00:56:12.343Z,56.75
2022-12-20T00:58:41.304Z,56.56
2022-12-20T01:01:21.782Z,56.68
2022-12-20T01:03:51.029Z,56.52
2022-12-20T01:06:19.212Z,56.40
2022-12-20T01:08:46.841Z,56.25
2022-12-20T01:11:16.816Z,56.47
2022-12-20T01:13:46.594Z,56.28
2022-12-20T01:16:28.968Z,56.32
2022-12-20T01:18:56.601Z,56.60
2022-12-20T01:21:26.180Z,56.38
2022-12-20T01:23:54.265Z,56.09
2022-12-20T01:26:23.315Z,56.34
2022-12-20T01:28:54.944Z,56.74
2022-12-20T01:31:22.540Z,56.24
2022-12-20T01:33:50.538Z,56.00
2022-12-20T01:36:21.349Z,56.59
2022-12-20T01:38:48.715Z,56.50
2022-12-20T01:41:18.674Z,56.65
2022-12-20T01:43:56.963Z,56.46
2022-12-20T01:46:26.910Z,56.41
2022-12-20T01:49:13.463Z,56.46
2022-12-20T01:51:43.563Z,56.59
2022-12-20T01:54:16.675Z,56.63
2022-12-20T01:56:47.388Z,56.35
2022-12-20T01:59:15.124Z,56.09
2022-12-20T02:01:43.230Z,56.46
2022-12-20T02:04:12.178Z,56.33
2022-12-20T02:06:39.694Z,56.26
2022-12-20T02:09:08.459Z,56.24
2022-12-20T02:11:35.941Z,56.42
2022-12-20T02:14:16.838Z,56.41
2022-12-20T02:16:58.429Z,56.16
2022-12-20T02:19:40.944Z,55.99
2022-12-20T02:22:16.662Z,56.14
2022-12-20T02:24:53.132Z,56.07
2022-12-20T02:27:27.610Z,55.84
2022-12-20T02:30:06.658Z,55.81
2022-12-20T02:32:43.231Z,56.35
2022-12-20T02:35:14.946Z,56.17
2022-12-20T02:37:54.796Z,56.11
2022-12-20T02:40:25.200Z,56.09
2022-12-20T02:42:56.330Z,56.17
2022-12-20T02:45:28.016Z,56.62
2022-12-20T02:48:01.268Z,56.64
2022-12-20T02:50:35.872Z,56.38
2022-12-20T02:53:05.236Z,56.16
2022-12-20T02:56:00.387Z,56.19
2022-12-20T02:58:42.984Z,56.28
2022-12-20T03:01:23.811Z,56.00
2022-12-20T03:03:51.717Z,56.41
2022-12-20T03:06:19.575Z,56.72
2022-12-20T03:08:47.338Z,56.45
2022-12-20T03:11:15.045Z,56.43
2022-12-20T03:13:42.699Z,56.25
2022-12-20T03:16:10.944Z,56.17
2022-12-20T03:18:39.093Z,56.41
2022-12-20T03:21:06.449Z,56.58
2022-12-20T03:23:34.184Z,56.50
2022-12-20T03:26:01.798Z,56.60
2022-12-20T03:28:30.445Z,56.46
2022-12-20T03:30:58.005Z,56.22
2022-12-20T03:33:25.810Z,56.29
2022-12-20T03:35:53.367Z,56.43
2022-12-20T03:38:21.464Z,56.72
2022-12-20T03:40:49.048Z,56.47
2022-12-20T03:43:17.043Z,56.03
2022-12-20T03:45:44.643Z,56.60
2022-12-20T03:48:12.294Z,56.89
2022-12-20T03:50:39.689Z,56.95
2022-12-20T03:53:07.688Z,56.59
2022-12-20T03:55:35.328Z,56.42
2022-12-20T03:58:02.793Z,56.58
2022-12-20T04:00:30.714Z,56.40
2022-12-20T04:02:59.050Z,56.48
2022-12-20T04:05:27.030Z,56.35
2022-12-20T04:07:54.434Z,56.13
2022-12-20T04:10:22.027Z,56.23
2022-12-20T04:12:49.416Z,56.13
2022-12-20T04:15:17.116Z,56.31
2022-12-20T04:17:45.471Z,56.24
2022-12-20T04:20:20.400Z,56.11
2022-12-20T04:22:50.038Z,55.96
2022-12-20T04:25:19.825Z,55.97
2022-12-20T04:27:47.790Z,55.98
2022-12-20T04:30:15.509Z,55.83
2022-12-20T04:32:43.203Z,56.16
2022-12-20T04:35:11.301Z,55.96
2022-12-20T04:37:39.525Z,56.01
2022-12-20T04:40:07.728Z,55.94
2022-12-20T04:42:36.374Z,56.35
2022-12-20T04:45:04.389Z,56.44
2022-12-20T04:47:32.099Z,56.46
2022-12-20T04:49:59.562Z,56.31
2022-12-20T04:52:48.018Z,56.16
2022-12-20T04:55:16.140Z,56.16
2022-12-20T04:57:43.886Z,55.37
2022-12-20T05:00:11.987Z,56.05
2022-12-20T05:02:39.925Z,55.63
2022-12-20T05:05:08.599Z,55.74
2022-12-20T05:07:36.755Z,56.30
2022-12-20T05:10:04.649Z,56.27
2022-12-20T05:12:32.419Z,56.56
2022-12-20T05:15:00.568Z,56.60
2022-12-20T05:17:27.913Z,56.60
2022-12-20T05:19:55.515Z,56.59
2022-12-20T05:22:41.466Z,56.66
2022-12-20T05:25:31.751Z,56.34
2022-12-20T05:27:59.848Z,56.37
2022-12-20T05:30:27.769Z,56.45
2022-12-20T05:32:55.552Z,56.71
2022-12-20T05:35:23.007Z,56.52
2022-12-20T05:37:52.821Z,56.32
2022-12-20T05:40:20.732Z,55.73
2022-12-20T05:42:48.104Z,56.19
2022-12-20T05:45:15.933Z,55.97
2022-12-20T05:47:44.938Z,56.52
2022-12-20T05:50:18.535Z,56.60
2022-12-20T05:53:07.454Z,56.76
2022-12-20T05:55:40.528Z,56.98
2022-12-20T05:58:08.388Z,56.91
2022-12-20T06:00:37.373Z,56.71
2022-12-20T06:03:05.949Z,56.63
2022-12-20T06:05:38.813Z,56.77
2022-12-20T06:08:07.255Z,56.96
2022-12-20T06:10:35.134Z,56.87
2022-12-20T06:13:03.847Z,56.76
2022-12-20T06:15:32.100Z,56.65
2022-12-20T06:18:00.591Z,56.66
2022-12-20T06:20:28.628Z,56.94
2022-12-20T06:22:58.126Z,56.71
2022-12-20T06:25:28.430Z,56.72
2022-12-20T06:27:56.477Z,56.54
2022-12-20T06:30:30.238Z,56.25
2022-12-20T06:33:04.245Z,56.71
2022-12-20T06:35:32.231Z,56.59
2022-12-20T06:37:59.694Z,56.46
2022-12-20T06:40:27.847Z,56.45
2022-12-20T06:42:56.558Z,56.41
2022-12-20T06:45:24.131Z,56.52
2022-12-20T06:47:52.765Z,56.41
2022-12-20T06:50:20.596Z,56.36
2022-12-20T06:52:47.940Z,56.29
2022-12-20T06:55:15.681Z,55.81
2022-12-20T06:57:43.120Z,56.15
2022-12-20T07:00:12.794Z,56.35
2022-12-20T07:02:40.649Z,56.15
2022-12-20T07:05:08.253Z,56.04
2022-12-20T07:07:42.176Z,56.07
2022-12-20T07:10:12.391Z,56.04
2022-12-20T07:12:45.474Z,56.06
2022-12-20T07:15:15.756Z,56.17
2022-12-20T07:17:43.212Z,55.81
2022-12-20T07:20:13.890Z,56.06
2022-12-20T07:22:42.264Z,55.59
2022-12-20T07:25:11.335Z,55.64
2022-12-20T07:27:38.734Z,55.76
2022-12-20T07:30:06.863Z,55.90
2022-12-20T07:32:34.285Z,56.14
2022-12-20T07:35:01.716Z,55.92
2022-12-20T07:37:29.951Z,55.51
2022-12-20T07:39:57.325Z,55.76
2022-12-20T07:42:28.990Z,55.44
2022-12-20T07:45:03.661Z,55.75
2022-12-20T07:47:31.285Z,61.23
2022-12-20T07:49:58.685Z,60.13
2022-12-20T07:52:29.220Z,56.59
2022-12-20T07:55:01.981Z,57.10
2022-12-20T07:57:38.114Z,56.09
2022-12-20T08:00:06.279Z,55.20
2022-12-20T08:02:44.154Z,54.69
2022-12-20T08:05:12.552Z,54.45
2022-12-20T08:07:41.747Z,54.01
2022-12-20T08:10:11.263Z,56.22
2022-12-20T08:12:39.256Z,55.51
2022-12-20T08:15:07.525Z,54.44
2022-12-20T08:17:35.030Z,54.11
2022-12-20T08:20:03.490Z,54.38
2022-12-20T08:22:30.855Z,54.27
2022-12-20T08:24:58.236Z,54.61
2022-12-20T08:27:25.904Z,53.95
2022-12-20T08:29:53.293Z,53.87
2022-12-20T08:32:20.635Z,57.17
2022-12-20T08:34:48.418Z,54.33
2022-12-20T08:37:19.610Z,53.85
2022-12-20T08:39:46.982Z,53.41
2022-12-20T08:42:14.707Z,53.25
2022-12-20T08:44:42.084Z,53.59
2022-12-20T08:47:10.331Z,53.33
2022-12-20T08:49:42.419Z,53.39
2022-12-20T08:52:13.095Z,53.37
2022-12-20T08:54:40.766Z,53.02
2022-12-20T08:57:08.468Z,53.92
2022-12-20T08:59:35.866Z,52.90
2022-12-20T09:02:03.620Z,53.15
2022-12-20T09:04:31.218Z,52.92
2022-12-20T09:06:58.557Z,52.59
2022-12-20T09:09:26.176Z,52.45
2022-12-20T09:11:53.537Z,52.28
2022-12-20T09:14:20.878Z,52.25
2022-12-20T09:16:49.159Z,52.60
2022-12-20T09:19:16.507Z,51.89
2022-12-20T09:21:44.281Z,51.71
2022-12-20T09:24:11.956Z,51.69
2022-12-20T09:26:40.806Z,51.50
2022-12-20T09:29:08.262Z,54.64
2022-12-20T09:31:37.072Z,52.44
2022-12-20T09:34:04.529Z,52.20
2022-12-20T09:36:32.095Z,51.99
2022-12-20T09:38:59.841Z,52.12
2022-12-20T09:41:38.584Z,52.14
2022-12-20T09:44:33.841Z,52.00
2022-12-20T09:47:10.475Z,52.08
2022-12-20T09:49:42.070Z,52.86
2022-12-20T09:52:46.390Z,54.48
2022-12-20T09:55:32.763Z,56.22
2022-12-20T09:58:27.807Z,51.99
2022-12-20T10:00:55.768Z,50.95
2022-12-20T10:03:30.083Z,50.41
2022-12-20T10:06:04.649Z,50.15
2022-12-20T10:08:50.644Z,50.29
2022-12-20T10:11:36.627Z,50.40
2022-12-20T10:14:45.226Z,50.65
2022-12-20T10:17:36.156Z,50.26
2022-12-20T10:20:19.301Z,50.36
2022-12-20T10:22:53.323Z,50.00
2022-12-20T10:25:30.297Z,50.25
2022-12-20T10:27:58.581Z,49.64
2022-12-20T10:30:27.433Z,49.87
2022-12-20T10:32:56.931Z,50.03
2022-12-20T10:35:46.369Z,50.07
2022-12-20T10:38:17.542Z,49.21
2022-12-20T10:43:51.777Z,55.62
2022-12-20T10:46:19.474Z,50.66
2022-12-20T10:48:49.050Z,48.96
2022-12-20T10:51:20.168Z,48.74
2022-12-20T10:53:59.746Z,48.88
2022-12-20T10:56:32.592Z,49.06
2022-12-20T10:59:30.620Z,48.98
2022-12-20T11:01:58.391Z,49.02
2022-12-20T11:04:28.899Z,48.26
2022-12-20T11:06:57.197Z,48.53
2022-12-20T11:09:37.688Z,49.11
2022-12-20T11:12:16.553Z,49.05
2022-12-20T11:14:45.988Z,49.15
2022-12-20T11:17:29.786Z,48.88
2022-12-20T11:20:26.546Z,49.15
2022-12-20T11:23:19.173Z,49.26
2022-12-20T11:25:56.536Z,49.63
2022-12-20T11:28:39.163Z,49.38
2022-12-20T11:31:24.811Z,48.93
2022-12-20T11:33:55.246Z,49.46
2022-12-20T11:36:50.810Z,49.36
2022-12-20T11:39:39.234Z,49.00
2022-12-20T11:42:16.842Z,55.57
2022-12-20T11:45:03.295Z,49.45
2022-12-20T11:47:48.704Z,52.83
2022-12-20T11:50:36.856Z,49.89
2022-12-20T11:53:31.949Z,49.05
2022-12-20T11:56:02.803Z,57.06
2022-12-20T11:58:52.780Z,48.96
2022-12-20T12:01:25.555Z,47.90
2022-12-20T12:04:13.588Z,47.62
2022-12-20T12:06:46.385Z,47.16
2022-12-20T12:09:17.136Z,47.50
2022-12-20T12:12:08.742Z,47.97
2022-12-20T12:14:52.361Z,47.56
2022-12-20T12:17:44.359Z,47.94
2022-12-20T12:20:28.424Z,47.95
2022-12-20T12:23:02.197Z,48.16
2022-12-20T12:25:29.904Z,48.05
2022-12-20T12:27:57.298Z,48.14
2022-12-20T12:30:24.734Z,47.97
2022-12-20T12:32:56.938Z,47.86
2022-12-20T12:35:59.881Z,47.99
2022-12-20T12:38:55.650Z,47.75
2022-12-20T12:42:04.859Z,47.81
2022-12-20T12:44:38.941Z,47.96
2022-12-20T12:47:12.758Z,47.75
2022-12-20T12:49:40.893Z,47.80
2022-12-20T12:52:40.287Z,48.10
2022-12-20T12:55:35.778Z,48.04
2022-12-20T12:58:24.714Z,47.84
2022-12-20T13:00:52.384Z,48.17
2022-12-20T13:03:41.560Z,48.13
2022-12-20T13:06:28.373Z,48.33
2022-12-20T13:08:55.763Z,48.60
2022-12-20T13:11:34.319Z,48.42
2022-12-20T13:14:27.419Z,48.36
2022-12-20T13:17:25.561Z,48.17
2022-12-20T13:19:55.384Z,47.83
2022-12-20T13:22:26.838Z,47.97
2022-12-20T13:24:58.044Z,48.16
2022-12-20T13:27:31.028Z,49.28
2022-12-20T13:30:00.186Z,48.79
2022-12-20T13:32:46.622Z,48.66
2022-12-20T13:35:25.978Z,51.11
2022-12-20T13:38:05.726Z,48.09
2022-12-20T13:40:43.921Z,48.22
2022-12-20T13:43:21.781Z,48.25
2022-12-20T13:46:04.542Z,48.09
2022-12-20T13:48:38.314Z,49.79
2022-12-20T13:51:08.101Z,49.13
2022-12-20T13:53:36.090Z,48.50
2022-12-20T13:56:42.366Z,47.85
2022-12-20T13:59:27.839Z,47.58
2022-12-20T14:01:59.092Z,47.87
2022-12-20T14:04:28.603Z,48.01
2022-12-20T14:06:58.643Z,48.26
2022-12-20T14:09:28.620Z,48.48
2022-12-20T14:12:21.179Z,48.33
2022-12-20T14:14:53.181Z,48.43
2022-12-20T14:17:25.897Z,48.40
2022-12-20T14:20:07.176Z,48.51
2022-12-20T14:22:36.204Z,48.54
2022-12-20T14:25:05.645Z,48.37
2022-12-20T14:27:36.010Z,48.44
2022-12-20T14:30:05.769Z,48.73
2022-12-20T14:32:33.158Z,48.66
2022-12-20T14:35:00.619Z,48.60
2022-12-20T14:37:31.803Z,48.54
2022-12-20T14:40:04.242Z,48.49
2022-12-20T14:42:37.013Z,48.69
2022-12-20T14:45:17.371Z,48.52
2022-12-20T14:47:55.370Z,48.57
2022-12-20T14:50:34.525Z,48.37
2022-12-20T14:53:02.930Z,48.50
2022-12-20T14:55:32.530Z,48.78
2022-12-20T14:57:59.979Z,48.63
2022-12-20T15:00:33.409Z,48.62
2022-12-20T15:03:15.655Z,48.75
2022-12-20T15:05:45.477Z,48.90
2022-12-20T15:08:17.269Z,48.67
2022-12-20T15:11:10.787Z,48.76
2022-12-20T15:13:43.192Z,48.92
2022-12-20T15:16:25.830Z,49.06
2022-12-20T15:18:56.032Z,49.00
2022-12-20T15:21:31.248Z,49.01
2022-12-20T15:24:00.971Z,48.80
2022-12-20T15:26:29.519Z,48.98
2022-12-20T15:28:57.641Z,48.99
2022-12-20T15:31:33.294Z,48.83
2022-12-20T15:34:04.851Z,48.98
2022-12-20T15:36:33.948Z,48.86
2022-12-20T15:39:17.147Z,48.75
2022-12-20T15:41:48.837Z,49.00
2022-12-20T15:44:19.382Z,48.96
2022-12-20T15:46:47.194Z,48.95
2022-12-20T15:49:28.141Z,49.26
2022-12-20T15:51:56.161Z,50.13
2022-12-20T15:54:27.565Z,50.54
2022-12-20T15:57:00.034Z,51.21
2022-12-20T16:02:29.438Z,52.25
2022-12-20T16:04:58.700Z,52.81
2022-12-20T16:07:27.296Z,52.36
2022-12-20T16:09:54.738Z,52.50
2022-12-20T16:12:32.725Z,52.70
2022-12-20T16:15:00.161Z,52.36
2022-12-20T16:17:27.878Z,52.67
2022-12-20T16:19:55.565Z,53.06
2022-12-20T16:22:24.017Z,53.19
2022-12-20T16:24:52.135Z,53.10
2022-12-20T16:27:20.399Z,52.42
2022-12-20T16:29:47.927Z,52.41
2022-12-20T16:32:17.632Z,52.83
2022-12-20T16:34:45.682Z,53.03
2022-12-20T16:37:13.340Z,53.22
2022-12-20T16:39:41.720Z,53.37
2022-12-20T16:42:14.869Z,53.40
2022-12-20T16:44:45.076Z,53.28
2022-12-20T16:47:13.991Z,53.12
2022-12-20T16:49:51.210Z,54.52
2022-12-20T16:52:22.182Z,54.63
2022-12-20T16:54:50.599Z,54.60
2022-12-20T16:57:18.354Z,53.53
2022-12-20T16:59:46.190Z,68.64
2022-12-20T17:02:26.626Z,62.91
2022-12-20T17:04:54.991Z,58.77
2022-12-20T17:07:22.601Z,55.49
2022-12-20T17:12:35.655Z,60.59
2022-12-20T17:15:04.799Z,56.61
2022-12-20T17:17:32.163Z,54.41
2022-12-20T17:20:00.062Z,53.61
2022-12-20T17:22:27.500Z,53.21
2022-12-20T17:24:54.932Z,52.96
2022-12-20T17:27:22.682Z,53.12
2022-12-20T17:29:50.749Z,53.25
2022-12-20T17:32:21.137Z,53.29
2022-12-20T17:34:49.042Z,52.96
2022-12-20T17:37:17.518Z,55.48
2022-12-20T17:39:45.031Z,53.39
2022-12-20T17:42:13.745Z,52.86
2022-12-20T17:44:41.212Z,53.10
2022-12-20T17:47:08.762Z,53.18
2022-12-20T17:49:36.624Z,53.29
2022-12-20T17:52:04.491Z,53.35
2022-12-20T17:54:39.115Z,53.24
2022-12-20T17:57:13.469Z,53.19
2022-12-20T17:59:41.399Z,53.25
2022-12-20T18:02:19.495Z,53.54
2022-12-20T18:04:47.461Z,53.36
2022-12-20T18:07:15.003Z,53.50
2022-12-20T18:09:42.477Z,53.29
2022-12-20T18:12:10.851Z,53.45
2022-12-20T18:14:38.293Z,53.28
2022-12-20T18:17:05.710Z,53.91
2022-12-20T18:19:33.457Z,54.24
2022-12-20T18:22:01.541Z,54.69
2022-12-20T18:24:28.963Z,54.40
2022-12-20T18:26:56.676Z,54.28
2022-12-20T18:29:24.027Z,54.06
2022-12-20T18:31:51.393Z,54.30
2022-12-20T18:34:19.068Z,54.41
2022-12-20T18:36:46.518Z,54.77
2022-12-20T18:39:13.970Z,54.65
2022-12-20T18:41:43.050Z,54.81
2022-12-20T18:44:11.650Z,54.58
2022-12-20T18:46:39.496Z,54.63
2022-12-20T18:49:07.213Z,54.70
2022-12-20T18:51:36.781Z,54.73
2022-12-20T18:54:06.026Z,54.53
2022-12-20T18:56:35.908Z,54.59
2022-12-20T18:59:11.448Z,54.56
2022-12-20T19:01:40.730Z,54.51
2022-12-20T19:04:08.867Z,54.52
2022-12-20T19:06:36.935Z,54.38
2022-12-20T19:09:08.020Z,54.63
2022-12-20T19:11:35.606Z,54.51
2022-12-20T19:14:03.563Z,54.70
2022-12-20T19:16:32.812Z,54.74
2022-12-20T19:19:01.915Z,54.68
2022-12-20T19:21:33.882Z,54.47
2022-12-20T19:24:06.849Z,54.62
2022-12-20T19:26:36.399Z,54.51
2022-12-20T19:29:05.140Z,54.26
2022-12-20T19:31:34.943Z,54.86
2022-12-20T19:34:05.246Z,54.93
2022-12-20T19:36:44.114Z,54.99
2022-12-20T19:39:14.728Z,54.68
2022-12-20T19:41:42.713Z,54.66
2022-12-20T19:44:10.225Z,54.67
2022-12-20T19:46:38.206Z,54.61
2022-12-20T19:49:06.288Z,54.93
2022-12-20T19:51:33.836Z,54.64
2022-12-20T19:54:01.381Z,54.75
2022-12-20T19:56:31.779Z,54.93
2022-12-20T19:58:59.601Z,54.89
2022-12-20T20:01:28.097Z,54.26
2022-12-20T20:03:58.125Z,54.60
2022-12-20T20:06:26.727Z,54.92
2022-12-20T20:08:57.477Z,54.82
2022-12-20T20:11:25.752Z,54.30
2022-12-20T20:13:53.199Z,55.04
2022-12-20T20:16:22.759Z,54.98
2022-12-20T20:18:51.226Z,55.05
2022-12-20T20:21:22.469Z,55.02
2022-12-20T20:23:51.357Z,54.93
2022-12-20T20:26:22.549Z,54.83
2022-12-20T20:28:50.457Z,54.90
2022-12-20T20:31:19.376Z,54.73
2022-12-20T20:33:47.536Z,54.64
2022-12-20T20:36:17.582Z,54.77
2022-12-20T20:38:45.607Z,54.83
2022-12-20T20:41:14.292Z,54.74
2022-12-20T20:43:42.348Z,54.69
2022-12-20T20:46:12.826Z,54.47
2022-12-20T20:48:40.928Z,54.57
2022-12-20T20:51:08.827Z,54.63
2022-12-20T20:53:36.510Z,54.64
2022-12-20T20:56:05.385Z,54.63
2022-12-20T20:58:33.674Z,54.35
2022-12-20T21:01:03.118Z,54.43
2022-12-20T21:03:31.406Z,54.82
2022-12-20T21:08:46.763Z,54.99
2022-12-20T21:11:14.376Z,55.10
2022-12-20T21:13:41.870Z,55.08
2022-12-20T21:16:12.221Z,54.96
2022-12-20T21:18:39.949Z,54.53
2022-12-20T21:21:09.314Z,54.65
2022-12-20T21:23:37.432Z,54.70
2022-12-20T21:26:05.206Z,54.69
2022-12-20T21:28:32.713Z,54.61
2022-12-20T21:31:01.838Z,54.54
2022-12-20T21:33:29.316Z,54.69
2022-12-20T21:36:00.602Z,54.78
2022-12-20T21:38:28.681Z,54.48
2022-12-20T21:41:08.108Z,54.81
2022-12-20T21:43:35.791Z,54.95
2022-12-20T21:46:03.318Z,55.19
2022-12-20T21:48:31.087Z,54.93
2022-12-20T21:51:02.802Z,54.88
2022-12-20T21:53:30.828Z,55.16
2022-12-20T21:55:59.923Z,55.26
2022-12-20T21:58:29.718Z,55.15
2022-12-20T22:00:57.697Z,55.38
2022-12-20T22:03:26.186Z,55.49
2022-12-20T22:05:55.696Z,55.41
2022-12-20T22:08:24.703Z,55.08
2022-12-20T22:11:02.314Z,55.14
2022-12-20T22:13:35.579Z,55.02
2022-12-20T22:16:10.421Z,55.24
2022-12-20T22:18:38.467Z,55.27
2022-12-20T22:21:07.600Z,55.25
2022-12-20T22:23:35.319Z,55.14
2022-12-20T22:26:04.120Z,55.02
2022-12-20T22:28:31.472Z,55.45
2022-12-20T22:30:59.150Z,55.81
2022-12-20T22:33:26.816Z,55.73
2022-12-20T22:35:54.234Z,55.42
2022-12-20T22:38:21.901Z,55.65
2022-12-20T22:40:49.299Z,55.66
2022-12-20T22:43:16.694Z,55.63
2022-12-20T22:45:44.432Z,55.54
2022-12-20T22:48:11.845Z,55.46
2022-12-20T22:50:39.210Z,55.43
2022-12-20T22:53:06.980Z,55.51
2022-12-20T22:55:34.710Z,55.81
2022-12-20T22:58:02.084Z,55.92
2022-12-20T23:00:29.724Z,55.62
2022-12-20T23:02:57.286Z,55.87
2022-12-20T23:05:24.830Z,55.76
2022-12-20T23:07:52.464Z,55.56
2022-12-20T23:10:38.636Z,55.82
2022-12-20T23:13:24.520Z,56.04
2022-12-20T23:15:51.898Z,55.50
2022-12-20T23:18:19.557Z,55.36
2022-12-20T23:21:11.924Z,55.66
2022-12-20T23:23:39.653Z,55.61
2022-12-20T23:26:16.199Z,55.17
2022-12-20T23:28:44.238Z,55.06
2022-12-20T23:31:11.686Z,55.15
2022-12-20T23:33:39.296Z,54.97
2022-12-20T23:36:07.439Z,54.56
2022-12-20T23:38:36.315Z,54.70
2022-12-20T23:41:11.334Z,54.19
2022-12-20T23:43:39.536Z,54.17
2022-12-20T23:46:11.844Z,54.58
2022-12-20T23:48:39.947Z,54.14
2022-12-20T23:51:07.607Z,54.23
2022-12-20T23:53:35.087Z,54.17
2022-12-20T23:56:10.403Z,54.25
2022-12-20T23:58:38.301Z,54.19
